createdAt,value
2023-05-22T00:01:47.031Z,27.60
2023-05-22T00:04:21.467Z,31.33
2023-05-22T00:06:49.942Z,35.20
2023-05-22T00:09:18.235Z,29.27
2023-05-22T00:11:46.922Z,30.03
2023-05-22T00:14:14.643Z,29.93
2023-05-22T00:16:44.123Z,32.23
2023-05-22T00:19:13.521Z,28.20
2023-05-22T00:21:43.405Z,39.50
2023-05-22T00:24:11.421Z,32.37
2023-05-22T00:26:39.116Z,38.23
2023-05-22T00:29:07.567Z,38.00
2023-05-22T00:31:35.480Z,31.50
2023-05-22T00:34:03.878Z,36.23
2023-05-22T00:36:31.985Z,37.23
2023-05-22T00:39:02.626Z,30.87
2023-05-22T00:41:30.649Z,34.43
2023-05-22T00:43:58.791Z,31.00
2023-05-22T00:46:26.510Z,31.03
2023-05-22T00:48:54.514Z,28.97
2023-05-22T00:51:22.995Z,29.20
2023-05-22T00:53:51.934Z,29.20
2023-05-22T00:56:21.845Z,28.83
2023-05-22T00:58:49.994Z,29.70
2023-05-22T01:01:18.085Z,33.47
2023-05-22T01:03:46.847Z,32.10
2023-05-22T01:06:15.709Z,29.40
2023-05-22T01:08:44.362Z,29.67
2023-05-22T01:11:15.632Z,27.93
2023-05-22T01:13:47.508Z,32.70
2023-05-22T01:16:20.132Z,30.70
2023-05-22T01:18:52.486Z,31.20
2023-05-22T01:21:23.922Z,31.40
2023-05-22T01:24:13.838Z,31.00
2023-05-22T01:26:50.055Z,34.70
2023-05-22T01:29:35.668Z,33.13
2023-05-22T01:32:05.882Z,33.47
2023-05-22T01:34:36.451Z,32.57
2023-05-22T01:37:07.139Z,31.00
2023-05-22T01:39:35.457Z,32.23
2023-05-22T01:42:03.466Z,32.00
2023-05-22T01:44:31.772Z,31.97
2023-05-22T01:47:04.998Z,32.70
2023-05-22T01:49:35.612Z,30.83
2023-05-22T01:52:10.015Z,29.53
2023-05-22T01:54:39.834Z,32.20
2023-05-22T01:57:10.863Z,32.83
2023-05-22T01:59:43.761Z,30.90
2023-05-22T02:02:12.495Z,31.57
2023-05-22T02:04:44.046Z,34.60
2023-05-22T02:07:13.016Z,30.70
2023-05-22T02:09:42.053Z,30.27
2023-05-22T02:12:13.623Z,30.50
2023-05-22T02:14:42.380Z,33.37
2023-05-22T02:17:10.120Z,32.00
2023-05-22T02:19:38.731Z,35.03
2023-05-22T02:22:09.936Z,33.50
2023-05-22T02:24:38.933Z,34.00
2023-05-22T02:27:07.239Z,32.63
2023-05-22T02:29:35.017Z,33.33
2023-05-22T02:32:03.259Z,31.37
2023-05-22T02:34:32.095Z,32.50
2023-05-22T02:37:00.772Z,44.80
2023-05-22T02:39:30.287Z,33.77
2023-05-22T02:41:58.363Z,30.30
2023-05-22T02:44:26.272Z,36.07
2023-05-22T02:46:55.184Z,29.53
2023-05-22T02:49:22.978Z,38.57
2023-05-22T02:51:51.126Z,34.63
2023-05-22T02:57:09.525Z,33.27
2023-05-22T02:59:38.841Z,31.77
2023-05-22T03:02:07.124Z,37.30
2023-05-22T03:04:38.530Z,42.23
2023-05-22T03:07:07.205Z,35.30
2023-05-22T03:09:34.989Z,33.27
2023-05-22T03:12:03.208Z,31.20
2023-05-22T03:14:32.366Z,36.33
2023-05-22T03:17:00.469Z,35.07
2023-05-22T03:19:28.561Z,34.50
2023-05-22T03:21:56.464Z,33.47
2023-05-22T03:24:24.248Z,33.80
2023-05-22T03:26:52.416Z,32.60
2023-05-22T03:29:36.433Z,34.30
2023-05-22T03:32:05.293Z,40.37
2023-05-22T03:34:33.175Z,35.03
2023-05-22T03:37:02.627Z,37.00
2023-05-22T03:39:30.795Z,36.33
2023-05-22T03:42:08.092Z,37.37
2023-05-22T03:44:37.551Z,36.33
2023-05-22T03:47:07.096Z,33.50
2023-05-22T03:49:35.355Z,40.10
2023-05-22T03:52:03.541Z,35.80
2023-05-22T03:54:32.487Z,35.20
2023-05-22T03:57:00.698Z,34.47
2023-05-22T03:59:28.442Z,39.63
2023-05-22T04:02:01.652Z,38.80
2023-05-22T04:04:29.622Z,41.97
2023-05-22T04:06:58.357Z,36.40
2023-05-22T04:09:27.757Z,37.60
2023-05-22T04:11:58.983Z,34.23
2023-05-22T04:14:27.176Z,46.37
2023-05-22T04:16:55.059Z,37.77
2023-05-22T04:19:24.460Z,33.90
2023-05-22T04:21:52.675Z,36.07
2023-05-22T04:24:23.018Z,34.90
2023-05-22T04:26:50.989Z,44.93
2023-05-22T04:29:22.372Z,35.97
2023-05-22T04:31:50.126Z,38.80
2023-05-22T04:34:19.165Z,40.50
2023-05-22T04:36:48.498Z,42.90
2023-05-22T04:39:16.790Z,41.33
2023-05-22T04:41:44.581Z,40.60
2023-05-22T04:44:15.072Z,35.57
2023-05-22T04:46:43.824Z,36.13
2023-05-22T04:49:11.685Z,40.50
2023-05-22T04:51:39.921Z,36.27
2023-05-22T04:54:09.246Z,38.97
2023-05-22T04:56:37.492Z,41.70
2023-05-22T04:59:09.444Z,45.23
2023-05-22T05:01:39.017Z,41.00
2023-05-22T05:04:06.904Z,43.67
2023-05-22T05:06:36.094Z,41.07
2023-05-22T05:09:04.315Z,37.00
2023-05-22T05:11:33.536Z,42.80
2023-05-22T05:14:01.447Z,45.70
2023-05-22T05:16:30.125Z,38.10
2023-05-22T05:18:58.298Z,39.57
2023-05-22T05:21:28.274Z,49.73
2023-05-22T05:24:00.080Z,44.40
2023-05-22T05:26:28.642Z,42.30
2023-05-22T05:28:57.735Z,45.80
2023-05-22T05:31:33.033Z,36.73
2023-05-22T05:34:14.526Z,41.60
2023-05-22T05:36:57.583Z,32.47
2023-05-22T05:39:26.554Z,37.87
2023-05-22T05:41:54.981Z,34.40
2023-05-22T05:44:25.768Z,38.03
2023-05-22T05:46:53.889Z,41.47
2023-05-22T05:49:23.210Z,49.67
2023-05-22T05:51:51.232Z,43.40
2023-05-22T05:54:20.359Z,43.93
2023-05-22T05:56:49.305Z,34.93
2023-05-22T05:59:17.381Z,40.70
2023-05-22T06:02:05.645Z,45.93
2023-05-22T06:04:35.779Z,42.33
2023-05-22T06:07:05.060Z,36.80
2023-05-22T06:09:40.650Z,37.80
2023-05-22T06:12:15.858Z,34.57
2023-05-22T06:14:46.219Z,33.37
2023-05-22T06:17:17.249Z,35.30
2023-05-22T06:19:47.249Z,49.20
2023-05-22T06:22:16.567Z,36.90
2023-05-22T06:24:47.110Z,37.07
2023-05-22T06:27:18.999Z,35.53
2023-05-22T06:29:47.155Z,37.37
2023-05-22T06:32:15.158Z,35.80
2023-05-22T06:34:46.780Z,36.23
2023-05-22T06:37:17.005Z,37.67
2023-05-22T06:39:46.059Z,35.80
2023-05-22T06:42:23.653Z,39.83
2023-05-22T06:45:10.633Z,40.93
2023-05-22T06:47:52.435Z,41.40
2023-05-22T06:50:22.613Z,37.80
2023-05-22T06:52:51.421Z,36.13
2023-05-22T06:55:19.735Z,36.23
2023-05-22T06:58:08.183Z,30.57
2023-05-22T07:00:37.054Z,34.10
2023-05-22T07:03:11.966Z,36.20
2023-05-22T07:05:53.641Z,37.50
2023-05-22T07:08:23.627Z,36.40
2023-05-22T07:10:51.815Z,32.50
2023-05-22T07:13:19.948Z,32.53
2023-05-22T07:15:49.480Z,33.60
2023-05-22T07:18:17.634Z,36.47
2023-05-22T07:20:46.248Z,32.23
2023-05-22T07:23:21.343Z,34.37
2023-05-22T07:25:51.192Z,33.23
2023-05-22T07:28:22.091Z,33.83
2023-05-22T07:31:01.155Z,30.80
2023-05-22T07:33:30.327Z,32.73
2023-05-22T07:35:58.316Z,37.10
2023-05-22T07:38:28.342Z,31.10
2023-05-22T07:41:04.842Z,31.70
2023-05-22T07:43:34.284Z,30.60
2023-05-22T07:46:02.561Z,28.80
2023-05-22T07:48:37.193Z,44.93
2023-05-22T07:51:05.272Z,38.97
2023-05-22T07:53:34.736Z,28.37
2023-05-22T07:56:04.818Z,27.90
2023-05-22T07:58:34.617Z,36.60
2023-05-22T08:01:02.722Z,30.27
2023-05-22T08:03:30.828Z,27.90
2023-05-22T08:05:59.007Z,29.87
2023-05-22T08:08:28.398Z,25.77
2023-05-22T08:13:29.895Z,36.30
2023-05-22T08:16:00.592Z,31.03
2023-05-22T08:18:31.204Z,28.53
2023-05-22T08:21:00.218Z,29.63
2023-05-22T08:23:28.064Z,30.73
2023-05-22T08:25:56.128Z,32.17
2023-05-22T08:28:25.423Z,24.33
2023-05-22T08:30:54.347Z,38.17
2023-05-22T08:33:23.386Z,27.27
2023-05-22T08:35:51.212Z,23.80
2023-05-22T08:38:19.001Z,29.70
2023-05-22T08:40:48.719Z,24.20
2023-05-22T08:43:17.809Z,34.57
2023-05-22T08:45:47.184Z,32.63
2023-05-22T08:48:17.393Z,27.20
2023-05-22T08:50:46.072Z,26.87
2023-05-22T08:53:14.811Z,32.23
2023-05-22T08:55:42.952Z,25.17
2023-05-22T08:58:11.961Z,28.23
2023-05-22T09:00:40.359Z,27.10
2023-05-22T09:03:11.233Z,22.93
2023-05-22T09:05:39.432Z,30.57
2023-05-22T09:08:19.150Z,25.90
2023-05-22T09:10:48.969Z,34.20
2023-05-22T09:13:25.083Z,27.13
2023-05-22T09:15:52.995Z,27.23
2023-05-22T09:18:22.522Z,24.70
2023-05-22T09:20:51.512Z,22.93
2023-05-22T09:23:20.398Z,24.73
2023-05-22T09:25:48.223Z,24.93
2023-05-22T09:28:16.135Z,24.67
2023-05-22T09:30:44.350Z,30.23
2023-05-22T09:33:14.100Z,27.33
2023-05-22T09:35:44.119Z,25.67
2023-05-22T09:38:12.448Z,25.87
2023-05-22T09:40:41.421Z,24.70
2023-05-22T09:43:09.876Z,32.97
2023-05-22T09:45:38.058Z,25.37
2023-05-22T09:48:06.737Z,27.13
2023-05-22T09:50:34.748Z,24.53
2023-05-22T09:53:04.962Z,26.53
2023-05-22T09:55:33.472Z,30.67
2023-05-22T09:58:04.153Z,27.30
2023-05-22T10:00:34.177Z,25.73
2023-05-22T10:03:05.229Z,24.00
2023-05-22T10:05:34.038Z,26.47
2023-05-22T10:08:10.115Z,27.00
2023-05-22T10:10:39.542Z,23.00
2023-05-22T10:13:08.372Z,24.27
2023-05-22T10:15:36.142Z,21.90
2023-05-22T10:18:04.366Z,27.13
2023-05-22T10:20:32.664Z,23.67
2023-05-22T10:23:00.566Z,25.30
2023-05-22T10:25:30.453Z,29.50
2023-05-22T10:27:59.470Z,21.20
2023-05-22T10:30:30.598Z,26.13
2023-05-22T10:33:18.868Z,23.40
2023-05-22T10:35:48.651Z,25.00
2023-05-22T10:38:27.078Z,24.90
2023-05-22T10:40:57.019Z,25.40
2023-05-22T10:43:25.506Z,27.40
2023-05-22T10:46:02.290Z,27.53
2023-05-22T10:48:30.089Z,24.83
2023-05-22T10:50:59.953Z,28.30
2023-05-22T10:53:28.690Z,27.27
2023-05-22T10:56:02.465Z,27.53
2023-05-22T10:58:30.772Z,29.90
2023-05-22T11:01:14.927Z,24.07
2023-05-22T11:03:52.256Z,34.93
2023-05-22T11:06:37.344Z,26.77
2023-05-22T11:09:18.361Z,24.80
2023-05-22T11:11:47.825Z,28.23
2023-05-22T11:14:17.798Z,27.20
2023-05-22T11:16:46.156Z,32.40
2023-05-22T11:19:23.330Z,32.90
2023-05-22T11:21:51.980Z,25.77
2023-05-22T11:24:20.286Z,26.33
2023-05-22T11:27:02.126Z,31.53
2023-05-22T11:29:31.856Z,26.07
2023-05-22T11:31:59.730Z,26.20
2023-05-22T11:34:27.953Z,27.53
2023-05-22T11:36:59.219Z,24.30
2023-05-22T11:39:27.202Z,26.27
2023-05-22T11:41:55.175Z,25.37
2023-05-22T11:44:24.359Z,26.50
2023-05-22T11:46:52.716Z,34.97
2023-05-22T11:49:24.058Z,28.37
2023-05-22T11:51:53.143Z,25.27
2023-05-22T11:54:22.516Z,25.67
2023-05-22T11:56:50.328Z,31.40
2023-05-22T11:59:18.385Z,25.73
2023-05-22T12:01:50.093Z,29.63
2023-05-22T12:04:19.309Z,33.50
2023-05-22T12:06:47.230Z,28.90
2023-05-22T12:09:15.068Z,22.50
2023-05-22T12:11:46.759Z,22.87
2023-05-22T12:14:14.944Z,29.13
2023-05-22T12:16:44.407Z,29.37
2023-05-22T12:19:14.845Z,24.97
2023-05-22T12:21:42.778Z,27.50
2023-05-22T12:24:10.983Z,24.50
2023-05-22T12:26:39.440Z,29.03
2023-05-22T12:29:07.295Z,27.03
2023-05-22T12:31:35.762Z,25.87
2023-05-22T12:34:05.184Z,30.30
2023-05-22T12:36:35.867Z,35.20
2023-05-22T12:39:09.778Z,31.00
2023-05-22T12:41:37.594Z,23.37
2023-05-22T12:44:05.596Z,26.40
2023-05-22T12:46:33.872Z,23.10
2023-05-22T12:49:02.096Z,23.87
2023-05-22T12:51:31.234Z,29.87
2023-05-22T12:54:01.938Z,27.20
2023-05-22T12:56:30.333Z,24.20
2023-05-22T12:58:58.166Z,31.33
2023-05-22T13:01:26.403Z,27.90
2023-05-22T13:03:54.481Z,31.10
2023-05-22T13:06:22.399Z,27.30
2023-05-22T13:08:50.435Z,26.27
2023-05-22T13:11:23.263Z,23.57
2023-05-22T13:13:51.276Z,25.27
2023-05-22T13:16:19.235Z,30.93
2023-05-22T13:18:47.254Z,25.07
2023-05-22T13:21:15.416Z,28.93
2023-05-22T13:23:43.257Z,26.57
2023-05-22T13:26:11.040Z,24.67
2023-05-22T13:28:40.618Z,28.80
2023-05-22T13:31:08.528Z,25.13
2023-05-22T13:33:37.492Z,22.73
2023-05-22T13:36:05.680Z,24.53
2023-05-22T13:38:33.643Z,24.30
2023-05-22T13:41:01.486Z,29.30
2023-05-22T13:43:30.248Z,22.53
2023-05-22T13:45:59.407Z,24.13
2023-05-22T13:48:28.053Z,23.70
2023-05-22T13:50:56.093Z,25.80
2023-05-22T13:53:23.995Z,23.03
2023-05-22T13:55:51.989Z,23.07
2023-05-22T13:58:20.031Z,23.90
2023-05-22T14:00:47.918Z,28.77
2023-05-22T14:03:19.964Z,27.00
2023-05-22T14:05:47.892Z,24.00
2023-05-22T14:08:15.686Z,23.10
2023-05-22T14:10:43.989Z,27.10
2023-05-22T14:13:11.775Z,23.37
2023-05-22T14:15:39.911Z,22.20
2023-05-22T14:18:08.728Z,25.50
2023-05-22T14:20:38.113Z,22.00
2023-05-22T14:23:05.978Z,24.50
2023-05-22T14:25:33.919Z,24.07
2023-05-22T14:28:01.786Z,23.30
2023-05-22T14:30:29.721Z,24.00
2023-05-22T14:32:57.721Z,25.63
2023-05-22T14:35:25.617Z,25.40
2023-05-22T14:37:54.875Z,23.37
2023-05-22T14:40:23.093Z,25.00
2023-05-22T14:42:53.291Z,24.30
2023-05-22T14:45:22.454Z,23.80
2023-05-22T14:47:50.333Z,24.53
2023-05-22T14:50:20.322Z,25.73
2023-05-22T14:52:49.663Z,24.57
2023-05-22T14:55:19.271Z,23.53
2023-05-22T14:57:47.066Z,25.37
2023-05-22T15:00:15.413Z,24.20
2023-05-22T15:06:55.231Z,23.97
2023-05-22T15:09:22.989Z,23.60
2023-05-22T15:11:53.486Z,27.90
2023-05-22T15:14:21.500Z,24.57
2023-05-22T15:16:50.194Z,25.73
2023-05-22T15:19:18.663Z,23.23
2023-05-22T15:21:46.737Z,24.00
2023-05-22T15:24:14.484Z,26.33
2023-05-22T15:26:43.143Z,25.73
2023-05-22T15:29:12.780Z,27.67
2023-05-22T15:31:40.818Z,26.23
2023-05-22T15:36:57.434Z,25.87
2023-05-22T15:39:25.156Z,25.90
2023-05-22T15:42:05.305Z,25.33
2023-05-22T15:44:35.693Z,26.23
2023-05-22T15:47:03.512Z,24.80
2023-05-22T15:49:31.646Z,24.23
2023-05-22T15:51:59.872Z,24.57
2023-05-22T15:54:27.762Z,32.60
2023-05-22T15:56:55.804Z,33.20
2023-05-22T15:59:23.588Z,25.77
2023-05-22T16:01:52.677Z,28.60
2023-05-22T16:04:20.814Z,33.33
2023-05-22T16:06:48.670Z,27.00
2023-05-22T16:09:19.390Z,26.47
2023-05-22T16:11:48.463Z,29.10
2023-05-22T16:14:16.416Z,25.90
2023-05-22T16:16:44.715Z,25.27
2023-05-22T16:19:14.278Z,26.10
2023-05-22T16:21:42.656Z,26.00
2023-05-22T16:24:11.181Z,23.87
2023-05-22T16:26:39.763Z,27.43
2023-05-22T16:29:08.475Z,26.50
2023-05-22T16:31:36.439Z,26.27
2023-05-22T16:34:04.538Z,25.87
2023-05-22T16:36:34.128Z,28.00
2023-05-22T16:39:01.955Z,28.20
2023-05-22T16:41:29.910Z,28.40
2023-05-22T16:43:58.428Z,30.63
2023-05-22T16:48:55.888Z,31.57
2023-05-22T16:51:23.810Z,29.07
2023-05-22T16:53:53.006Z,29.00
2023-05-22T16:56:21.253Z,27.23
2023-05-22T16:58:50.324Z,30.80
2023-05-22T17:01:18.844Z,31.07
2023-05-22T17:03:46.972Z,25.50
2023-05-22T17:06:15.582Z,35.50
2023-05-22T17:08:43.706Z,27.40
2023-05-22T17:11:13.168Z,25.20
2023-05-22T17:13:41.371Z,26.30
2023-05-22T17:16:09.224Z,25.80
2023-05-22T17:18:37.820Z,26.80
2023-05-22T17:21:09.388Z,27.10
2023-05-22T17:23:38.811Z,29.23
2023-05-22T17:26:08.826Z,30.40
2023-05-22T17:28:38.093Z,29.77
2023-05-22T17:31:06.457Z,26.83
2023-05-22T17:33:34.608Z,24.63
2023-05-22T17:36:02.869Z,27.67
2023-05-22T17:38:30.851Z,26.30
2023-05-22T17:41:00.704Z,32.10
2023-05-22T17:43:29.455Z,26.00
2023-05-22T17:45:58.646Z,29.20
2023-05-22T17:48:27.208Z,29.57
2023-05-22T17:50:55.669Z,33.13
2023-05-22T17:53:23.657Z,35.33
2023-05-22T17:55:52.725Z,27.27
2023-05-22T17:58:21.137Z,32.13
2023-05-22T18:00:49.331Z,27.03
2023-05-22T18:03:20.880Z,31.50
2023-05-22T18:05:49.330Z,27.77
2023-05-22T18:08:17.345Z,29.10
2023-05-22T18:10:46.202Z,27.83
2023-05-22T18:13:14.593Z,29.80
2023-05-22T18:15:42.617Z,34.53
2023-05-22T18:21:03.286Z,29.33
2023-05-22T18:23:31.517Z,26.87
2023-05-22T18:25:59.801Z,27.60
2023-05-22T18:28:28.244Z,32.80
2023-05-22T18:30:56.393Z,26.13
2023-05-22T18:33:25.972Z,30.33
2023-05-22T18:35:54.078Z,27.10
2023-05-22T18:38:24.441Z,34.00
2023-05-22T18:40:52.382Z,31.53
2023-05-22T18:43:23.701Z,27.73
2023-05-22T18:45:51.886Z,28.97
2023-05-22T18:48:19.880Z,32.10
2023-05-22T18:50:48.297Z,30.47
2023-05-22T18:53:16.685Z,32.03
2023-05-22T18:55:48.607Z,31.93
2023-05-22T18:58:17.073Z,28.90
2023-05-22T19:00:45.684Z,29.20
2023-05-22T19:03:14.321Z,30.33
2023-05-22T19:05:43.286Z,29.30
2023-05-22T19:08:11.242Z,30.83
2023-05-22T19:10:39.286Z,26.87
2023-05-22T19:13:09.106Z,28.40
2023-05-22T19:15:37.601Z,28.67
2023-05-22T19:18:05.938Z,27.50
2023-05-22T19:20:34.294Z,28.50
2023-05-22T19:23:02.101Z,30.83
2023-05-22T19:25:30.307Z,33.23
2023-05-22T19:27:58.510Z,30.30
2023-05-22T19:30:28.093Z,31.83
2023-05-22T19:32:56.444Z,44.43
2023-05-22T19:35:24.384Z,34.53
2023-05-22T19:37:52.657Z,30.50
2023-05-22T19:40:20.669Z,30.50
2023-05-22T19:42:48.892Z,40.90
2023-05-22T19:49:24.634Z,29.40
2023-05-22T19:51:54.110Z,30.67
2023-05-22T19:54:23.970Z,30.93
2023-05-22T19:56:51.965Z,32.33
2023-05-22T19:59:19.748Z,35.20
2023-05-22T20:01:47.523Z,30.53
2023-05-22T20:04:15.830Z,29.50
2023-05-22T20:06:45.226Z,30.70
2023-05-22T20:09:13.526Z,30.10
2023-05-22T20:11:42.423Z,30.10
2023-05-22T20:14:10.700Z,27.77
2023-05-22T20:16:38.825Z,31.90
2023-05-22T20:19:08.458Z,31.10
2023-05-22T20:21:36.948Z,31.13
2023-05-22T20:24:12.289Z,28.00
2023-05-22T20:26:40.783Z,29.93
2023-05-22T20:29:08.968Z,36.43
2023-05-22T20:31:37.582Z,36.83
2023-05-22T20:34:05.384Z,31.17
2023-05-22T20:36:33.521Z,29.10
2023-05-22T20:39:02.653Z,30.57
2023-05-22T20:41:31.956Z,31.07
2023-05-22T20:43:59.856Z,31.17
2023-05-22T20:46:28.343Z,45.50
2023-05-22T20:48:56.755Z,28.47
2023-05-22T20:51:31.525Z,32.70
2023-05-22T20:54:00.783Z,30.63
2023-05-22T20:56:28.871Z,38.33
2023-05-22T20:58:58.165Z,31.30
2023-05-22T21:01:26.859Z,32.57
2023-05-22T21:03:56.390Z,34.80
2023-05-22T21:06:24.771Z,37.50
2023-05-22T21:08:54.282Z,32.77
2023-05-22T21:11:22.532Z,30.20
2023-05-22T21:13:50.317Z,32.67
2023-05-22T21:16:19.940Z,36.13
2023-05-22T21:18:47.907Z,31.00
2023-05-22T21:21:16.325Z,33.00
2023-05-22T21:23:44.441Z,45.80
2023-05-22T21:26:12.709Z,32.33
2023-05-22T21:28:40.858Z,27.97
2023-05-22T21:31:08.797Z,35.10
2023-05-22T21:33:38.151Z,39.70
2023-05-22T21:36:06.178Z,31.97
2023-05-22T21:38:34.103Z,35.77
2023-05-22T21:41:01.872Z,36.03
2023-05-22T21:43:29.576Z,34.03
2023-05-22T21:45:58.264Z,45.63
2023-05-22T21:48:26.570Z,30.03
2023-05-22T21:50:56.160Z,31.30
2023-05-22T21:53:25.367Z,36.07
2023-05-22T21:55:53.193Z,30.37
2023-05-22T21:58:21.004Z,37.50
2023-05-22T22:00:49.030Z,32.43
2023-05-22T22:03:17.003Z,31.70
2023-05-22T22:05:44.802Z,33.27
2023-05-22T22:08:14.221Z,32.40
2023-05-22T22:10:43.351Z,40.67
2023-05-22T22:13:11.235Z,30.57
2023-05-22T22:15:46.612Z,29.60
2023-05-22T22:18:15.841Z,32.57
2023-05-22T22:20:45.768Z,30.17
2023-05-22T22:23:15.840Z,31.03
2023-05-22T22:25:43.811Z,28.97
2023-05-22T22:28:11.555Z,35.93
2023-05-22T22:30:39.933Z,40.13
2023-05-22T22:33:08.095Z,29.57
2023-05-22T22:35:36.199Z,37.53
2023-05-22T22:38:04.232Z,26.70
2023-05-22T22:40:33.577Z,32.67
2023-05-22T22:43:01.438Z,33.50
2023-05-22T22:45:29.536Z,28.87
2023-05-22T22:47:57.527Z,33.73
2023-05-22T22:50:25.942Z,28.77
2023-05-22T22:52:54.143Z,34.10
2023-05-22T22:55:22.154Z,29.80
2023-05-22T22:57:51.899Z,35.87
2023-05-22T23:00:20.204Z,32.20
2023-05-22T23:02:48.049Z,35.30
2023-05-22T23:05:20.304Z,35.53
2023-05-22T23:07:49.214Z,30.10
2023-05-22T23:10:17.100Z,32.17
2023-05-22T23:12:45.029Z,30.57
2023-05-22T23:15:15.807Z,32.10
2023-05-22T23:17:43.846Z,29.30
2023-05-22T23:20:12.831Z,30.07
2023-05-22T23:22:40.642Z,28.60
2023-05-22T23:25:08.949Z,32.13
2023-05-22T23:27:37.436Z,33.60
2023-05-22T23:30:06.284Z,34.90
2023-05-22T23:32:35.958Z,32.33
2023-05-22T23:37:52.911Z,31.20
2023-05-22T23:40:21.050Z,31.77
2023-05-22T23:42:48.941Z,33.20
2023-05-22T23:45:16.624Z,31.73
2023-05-22T23:47:46.081Z,29.40
2023-05-22T23:50:13.955Z,28.60
2023-05-22T23:52:41.922Z,37.77
2023-05-22T23:55:10.197Z,28.60
2023-05-22T23:57:37.891Z,32.00
